»·PEaware :: N654B KBOI-KSUN

N654B :: KBOI-KSUN

FLIGHT INFORMATION

Flight Status: Arrived
Operator: Privately registered:
United States
More flights under this callsign
Pilot: Chase G. (14174)
Aircraft: PILATUS PC-12 EAGLE
(PC12)
More flights by this aircraft type
Origin: KBOI Boise Air Terminal/Gowen
United States
Destination: KSUN Friedman Meml
United States
More flights between these airports :: More routes between these airports
Route: +BOI3 ROARR HLE
File this flight plan on PilotEdge
Remarks:
Altitude:
(Current/Filed)
15,000ft
Speed:
(Current/Filed)
220kts
Departed: 16-Oct-20 11:06 AM
Arrived: 16-Oct-20 11:40 AM
Distance/Time
Traveled:
84nm/0:33
Distance/Time
To Go:
Arrived

Flight Plot

Page will automatically refresh every two minutes.

Flight plan parsing failed; only flown route is shown


Map Options




Map Legend


Flown Route
Filed Route
Departure Airport
Arrival Airport
Navaid (VOR, NDB)
Fix

Horizontal Profiles

Position Reports

Time Latitude Longitude Heading Altitude Ground
Speed
16-Oct-20 10:38 43.569879 -116.228950 183 2839ft 0kts
16-Oct-20 10:39 43.569879 -116.228950 183 2839ft 0kts
16-Oct-20 10:40 43.569879 -116.228950 183 2839ft 0kts
16-Oct-20 10:41 43.569879 -116.228950 183 2839ft 0kts
16-Oct-20 10:42 43.569879 -116.228950 183 2839ft 0kts
16-Oct-20 10:43 43.569879 -116.228950 183 2839ft 0kts
16-Oct-20 10:44 43.569879 -116.228950 183 2839ft 0kts
16-Oct-20 10:45 43.569879 -116.228950 183 2839ft 0kts
16-Oct-20 10:46 43.569879 -116.228950 183 2839ft 0kts
16-Oct-20 10:47 43.569879 -116.228950 182 2839ft 0kts
16-Oct-20 10:48 43.569879 -116.228950 182 2839ft 0kts
16-Oct-20 10:49 43.569879 -116.228950 182 2839ft 0kts
16-Oct-20 10:50 43.569879 -116.228950 182 2839ft 0kts
16-Oct-20 10:51 43.569879 -116.228950 182 2839ft 0kts
16-Oct-20 10:52 43.569879 -116.228950 182 2839ft 0kts
16-Oct-20 10:53 43.569879 -116.228950 182 2839ft 0kts
16-Oct-20 10:54 43.569879 -116.228950 182 2839ft 0kts
16-Oct-20 10:55 43.569879 -116.228950 182 2839ft 0kts
16-Oct-20 10:57 43.569879 -116.228950 182 2839ft 0kts
16-Oct-20 10:58 43.569879 -116.228950 182 2839ft 0kts
16-Oct-20 10:59 43.569879 -116.228950 182 2839ft 0kts
16-Oct-20 11:00 43.569879 -116.228950 182 2839ft 0kts
16-Oct-20 11:01 43.569879 -116.228950 182 2839ft 0kts
16-Oct-20 11:02 43.569751 -116.229597 273 2838ft 7kts
16-Oct-20 11:03 43.570004 -116.232769 294 2834ft 11kts
16-Oct-20 11:04 43.571012 -116.235831 285 2827ft 1kts
16-Oct-20 11:05 43.570735 -116.236365 198 2826ft 6kts
16-Oct-20 11:06 43.567145 -116.228009 117 2850ft 103kts
16-Oct-20 11:07 43.550553 -116.186666 122 4162ft 146kts
16-Oct-20 11:08 43.533642 -116.132243 111 5958ft 168kts
16-Oct-20 11:09 43.516404 -116.072054 114 7889ft 173kts
16-Oct-20 11:10 43.496951 -116.009664 116 9672ft 185kts
16-Oct-20 11:11 43.472392 -115.943602 117 11167ft 203kts
16-Oct-20 11:12 43.444450 -115.872697 108 12592ft 215kts
16-Oct-20 11:13 43.421569 -115.795692 109 14033ft 220kts
16-Oct-20 11:14 43.397373 -115.715481 110 15012ft 249kts
16-Oct-20 11:15 43.368368 -115.619836 110 15005ft 285kts
16-Oct-20 11:15 43.342511 -115.534838 110 15001ft 293kts
16-Oct-20 11:16 43.311317 -115.432665 110 15022ft 295kts
16-Oct-20 11:17 43.293535 -115.323865 82 14993ft 289kts
16-Oct-20 11:18 43.297845 -115.214002 82 15015ft 288kts
16-Oct-20 11:19 43.301888 -115.103955 82 15013ft 288kts
16-Oct-20 11:20 43.305811 -114.994137 82 15010ft 289kts
16-Oct-20 11:21 43.294778 -114.882821 95 14298ft 295kts
16-Oct-20 11:22 43.281106 -114.771957 95 13315ft 293kts
16-Oct-20 11:23 43.267432 -114.662151 95 12342ft 292kts
16-Oct-20 11:24 43.252353 -114.552921 101 11373ft 290kts
16-Oct-20 11:25 43.232754 -114.451113 102 10409ft 253kts
16-Oct-20 11:26 43.216317 -114.366067 102 10407ft 220kts
16-Oct-20 11:27 43.225478 -114.295498 33 10115ft 198kts
16-Oct-20 11:28 43.268855 -114.249584 35 9114ft 197kts
16-Oct-20 11:29 43.310472 -114.205662 34 8653ft 159kts
16-Oct-20 11:30 43.343311 -114.182008 337 8614ft 124kts
16-Oct-20 11:31 43.376923 -114.203532 330 8006ft 129kts
16-Oct-20 11:32 43.406367 -114.225124 328 7709ft 128kts
16-Oct-20 11:33 43.433831 -114.256483 318 7829ft 128kts
16-Oct-20 11:34 43.459570 -114.292135 313 7811ft 135kts
16-Oct-20 11:35 43.487736 -114.328272 323 7808ft 135kts
16-Oct-20 11:36 43.520787 -114.350866 351 7829ft 132kts
16-Oct-20 11:37 43.535718 -114.326403 136 6423ft 114kts
16-Oct-20 11:38 43.513123 -114.304597 143 5445ft 91kts
16-Oct-20 11:39 43.499975 -114.291898 141 5275ft 35kts
16-Oct-20 11:40 43.497715 -114.291309 303 5271ft 1kts
16-Oct-20 11:41 43.498754 -114.293231 40 5275ft 6kts
16-Oct-20 11:42 43.498890 -114.292972 53 5275ft 0kts
16-Oct-20 11:43 43.498890 -114.292972 53 5275ft 0kts
16-Oct-20 11:44 43.498890 -114.292972 53 5275ft 0kts

Navigation Log

Ident Type
Flight plan parsing failed, navigation log unavailable